Time;durP1;ratioP1;P1;durP2;ratioP2;P2;SDS_P1;SDS_P2;PMS_P1;PMS_P2;Temp;Humidity;BMP_temperature;BMP_pressure;BME280_temperature;BME280_humidity;BME280_pressure;Samples;Min_cycle;Max_cycle;Signal;HPM_P1;HPM_P2
2022/11/13 00:01:15;;;;;;;27.17;17.77;;;9.40;47.20;;;;;;5032519;28;20200;-46
2022/11/13 00:03:41;;;;;;;25.40;17.48;;;9.50;47.40;;;;;;5032853;28;20212;-45
2022/11/13 00:06:08;;;;;;;24.93;15.23;;;9.50;47.60;;;;;;5032130;28;20174;-45
2022/11/13 00:08:34;;;;;;;25.90;17.98;;;9.50;47.30;;;;;;5032769;28;20242;-45
2022/11/13 00:11:05;;;;;;;26.23;16.90;;;9.50;47.30;;;;;;5032415;28;20739;-45
2022/11/13 00:13:32;;;;;;;24.13;16.92;;;9.50;47.30;;;;;;5032588;28;20208;-45
2022/11/13 00:16:00;;;;;;;25.20;16.02;;;9.50;47.20;;;;;;5031909;28;20181;-46
2022/11/13 00:18:26;;;;;;;18.13;14.10;;;9.50;47.40;;;;;;5032406;28;20170;-45
2022/11/13 00:20:52;;;;;;;24.30;15.43;;;9.50;47.00;;;;;;5032532;28;20197;-45
2022/11/13 00:23:17;;;;;;;17.30;12.30;;;9.40;47.00;;;;;;5032417;28;20521;-45
2022/11/13 00:25:43;;;;;;;22.63;14.50;;;9.40;46.90;;;;;;5030483;28;20178;-44
2022/11/13 00:28:09;;;;;;;22.77;15.37;;;9.30;46.80;;;;;;5032268;28;20540;-44
2022/11/13 00:30:35;;;;;;;20.45;13.18;;;9.20;47.00;;;;;;5032009;28;20266;-45
2022/11/13 00:33:01;;;;;;;19.00;12.10;;;9.10;47.10;;;;;;5032350;28;20208;-43
2022/11/13 00:35:26;;;;;;;20.00;13.20;;;9.10;47.30;;;;;;5032239;28;20170;-46
2022/11/13 00:37:53;;;;;;;18.83;12.90;;;9.00;47.10;;;;;;5031510;28;20570;-45
2022/11/13 00:40:19;;;;;;;21.50;14.07;;;9.10;47.30;;;;;;5032315;28;20245;-44
2022/11/13 00:42:45;;;;;;;20.43;12.67;;;9.10;47.00;;;;;;5032091;28;20181;-45
2022/11/13 00:45:10;;;;;;;16.40;13.70;;;9.10;46.90;;;;;;5032293;28;20233;-46
2022/11/13 00:47:36;;;;;;;22.70;14.80;;;9.10;47.20;;;;;;5031783;28;20319;-45
2022/11/13 00:50:02;;;;;;;20.03;14.80;;;9.00;47.60;;;;;;5031983;28;20600;-45
2022/11/13 00:52:28;;;;;;;20.67;14.03;;;8.90;47.70;;;;;;5036000;28;20230;-44
2022/11/13 00:54:54;;;;;;;16.80;13.63;;;8.90;47.60;;;;;;5036399;28;20492;-43
2022/11/13 00:57:19;;;;;;;19.33;13.00;;;8.80;47.80;;;;;;5035374;28;20922;-45
2022/11/13 00:59:45;;;;;;;19.37;12.93;;;8.80;47.90;;;;;;5036316;28;20218;-45
2022/11/13 01:02:14;;;;;;;16.27;12.37;;;8.90;47.90;;;;;;5035844;28;20209;-44
2022/11/13 01:04:40;;;;;;;19.10;12.60;;;8.90;47.80;;;;;;5036084;28;20212;-44
2022/11/13 01:07:06;;;;;;;17.33;13.75;;;8.90;47.70;;;;;;5034174;28;20181;-45
2022/11/13 01:09:32;;;;;;;17.63;13.20;;;8.90;47.60;;;;;;5035515;28;20184;-44
2022/11/13 01:11:57;;;;;;;20.47;13.20;;;8.80;47.60;;;;;;5035957;28;20182;-45
2022/11/13 01:14:23;;;;;;;16.83;12.43;;;8.80;47.50;;;;;;5035636;28;20632;-45
2022/11/13 01:16:49;;;;;;;16.57;13.67;;;8.90;47.60;;;;;;5035355;28;20185;-45
2022/11/13 01:19:14;;;;;;;18.23;12.40;;;8.90;47.60;;;;;;5035701;28;20169;-44
2022/11/13 01:21:40;;;;;;;16.77;12.50;;;8.90;47.50;;;;;;5035519;28;20332;-44
2022/11/13 01:24:09;;;;;;;14.60;11.33;;;8.90;47.50;;;;;;5035647;28;20177;-44
2022/11/13 01:26:34;;;;;;;15.50;11.65;;;8.80;47.30;;;;;;5034836;28;20663;-44
2022/11/13 01:29:00;;;;;;;15.40;10.73;;;8.80;47.30;;;;;;5035411;28;20223;-44
2022/11/13 01:31:29;;;;;;;14.90;11.40;;;8.80;47.30;;;;;;5035268;28;20233;-45
2022/11/13 01:33:55;;;;;;;19.95;11.75;;;8.80;47.80;;;;;;5035326;28;20250;-44
2022/11/13 01:36:24;;;;;;;17.23;11.07;;;8.80;47.00;;;;;;5034718;28;20173;-44
2022/11/13 01:38:50;;;;;;;14.48;9.73;;;8.80;47.00;;;;;;5035253;28;20257;-43
2022/11/13 01:41:24;;;;;;;12.70;10.90;;;8.80;46.90;;;;;;5035065;28;20272;-44
2022/11/13 01:43:51;;;;;;;13.93;9.75;;;8.80;46.60;;;;;;5035518;28;20160;-45
2022/11/13 01:46:17;;;;;;;16.50;11.52;;;8.80;46.60;;;;;;5034680;28;20228;-44
2022/11/13 01:48:52;;;;;;;11.73;10.37;;;8.80;46.50;;;;;;5035139;28;20661;-44
2022/11/13 01:51:24;;;;;;;11.35;9.68;;;8.80;46.30;;;;;;5034942;28;20212;-45
2022/11/13 01:53:50;;;;;;;15.75;10.30;;;8.70;46.40;;;;;;5034834;28;20291;-46
2022/11/13 01:56:16;;;;;;;12.13;8.65;;;8.70;46.50;;;;;;5033065;28;20199;-45
2022/11/13 01:58:48;;;;;;;12.10;9.18;;;8.60;46.40;;;;;;5035185;28;20540;-45
2022/11/13 02:01:13;;;;;;;12.82;10.35;;;8.70;46.50;;;;;;5034810;28;20564;-43
2022/11/13 02:03:39;;;;;;;13.30;10.20;;;8.60;46.50;;;;;;5033936;28;20181;-45
2022/11/13 02:06:05;;;;;;;12.40;9.17;;;8.60;46.50;;;;;;5034174;28;20188;-44
2022/11/13 02:08:31;;;;;;;12.27;8.83;;;8.70;46.50;;;;;;5035008;28;20180;-45
2022/11/13 02:10:56;;;;;;;16.83;10.97;;;8.60;46.30;;;;;;5034538;28;20520;-45
2022/11/13 02:13:24;;;;;;;11.90;9.67;;;8.60;46.20;;;;;;5034650;28;20212;-45
2022/11/13 02:15:51;;;;;;;13.20;9.55;;;8.60;46.20;;;;;;5034168;28;20172;-44
2022/11/13 02:18:19;;;;;;;12.52;9.23;;;8.60;46.10;;;;;;5034578;28;20176;-45
2022/11/13 02:21:06;;;;;;;12.43;8.57;;;8.60;46.00;;;;;;5034352;28;20279;-45
2022/11/13 02:23:52;;;;;;;11.10;8.90;;;8.60;45.90;;;;;;5034690;28;20185;-45
2022/11/13 02:26:20;;;;;;;10.82;8.25;;;8.50;46.00;;;;;;5034055;28;20228;-45
2022/11/13 02:28:46;;;;;;;10.65;9.45;;;8.50;46.20;;;;;;5034745;28;20184;-46
2022/11/13 02:31:13;;;;;;;14.70;9.93;;;8.50;46.10;;;;;;5034014;28;20210;-44
2022/11/13 02:33:39;;;;;;;11.98;9.30;;;8.40;45.80;;;;;;5034054;28;20210;-46
2022/11/13 02:36:08;;;;;;;13.50;10.50;;;8.40;45.90;;;;;;5033631;28;20229;-46
2022/11/13 02:38:36;;;;;;;10.75;7.80;;;8.40;45.80;;;;;;5034438;28;20831;-45
2022/11/13 02:41:01;;;;;;;11.88;9.27;;;8.30;45.80;;;;;;5034082;28;20215;-45
2022/11/13 02:43:27;;;;;;;14.10;9.97;;;8.30;45.80;;;;;;5034072;28;20601;-45
2022/11/13 02:45:53;;;;;;;13.17;9.10;;;8.30;45.80;;;;;;5033506;28;20170;-46
2022/11/13 02:48:19;;;;;;;12.77;8.83;;;8.30;45.70;;;;;;5033955;28;20648;-46
2022/11/13 02:50:45;;;;;;;11.30;8.20;;;8.30;45.60;;;;;;5033829;28;20421;-45
2022/11/13 02:53:11;;;;;;;11.30;8.85;;;8.20;45.30;;;;;;5033825;28;21026;-45
2022/11/13 02:55:36;;;;;;;11.20;8.60;;;8.20;45.40;;;;;;5033383;28;20190;-45
2022/11/13 02:58:02;;;;;;;14.30;9.47;;;8.10;45.20;;;;;;5034047;28;20179;-44
2022/11/13 03:00:28;;;;;;;16.88;10.77;;;8.10;45.20;;;;;;5033908;28;20201;-45
2022/11/13 03:02:54;;;;;;;12.52;9.35;;;8.00;45.20;;;;;;5033686;28;20538;-44
2022/11/13 03:05:21;;;;;;;13.15;9.25;;;7.90;45.00;;;;;;5033543;28;20657;-45
2022/11/13 03:07:47;;;;;;;11.40;9.02;;;7.90;45.00;;;;;;5033030;28;20182;-45
2022/11/13 03:10:13;;;;;;;11.43;7.97;;;7.90;44.90;;;;;;5033438;28;20569;-44
2022/11/13 03:12:39;;;;;;;11.97;8.77;;;7.90;44.90;;;;;;5033392;28;20449;-44
2022/11/13 03:15:07;;;;;;;12.13;9.23;;;7.80;44.70;;;;;;5033563;28;20428;-44
2022/11/13 03:17:34;;;;;;;14.05;7.88;;;7.70;44.80;;;;;;5031569;28;20413;-44
2022/11/13 03:20:00;;;;;;;12.07;7.85;;;7.70;44.90;;;;;;5033331;28;20198;-44
2022/11/13 03:22:26;;;;;;;14.55;8.75;;;7.70;44.70;;;;;;5033575;28;20252;-45
2022/11/13 03:24:52;;;;;;;11.02;9.05;;;7.60;44.70;;;;;;5033275;28;20199;-46
2022/11/13 03:27:18;;;;;;;11.73;9.67;;;7.60;44.60;;;;;;5032571;28;20649;-45
2022/11/13 03:29:44;;;;;;;13.73;10.85;;;7.50;44.40;;;;;;5032985;28;20947;-46
2022/11/13 03:32:10;;;;;;;14.00;10.10;;;7.40;44.50;;;;;;5033065;28;20187;-46
2022/11/13 03:34:37;;;;;;;13.20;9.47;;;7.40;44.60;;;;;;5033194;28;20181;-46
2022/11/13 03:37:03;;;;;;;12.00;9.07;;;7.40;44.50;;;;;;5032373;28;20181;-45
2022/11/13 03:39:28;;;;;;;14.53;9.47;;;7.30;44.50;;;;;;5032880;28;20178;-45
2022/11/13 03:41:54;;;;;;;14.70;9.13;;;7.30;44.60;;;;;;5032880;28;20170;-45
2022/11/13 03:44:20;;;;;;;12.80;9.73;;;7.30;44.40;;;;;;5032869;28;20181;-45
2022/11/13 03:46:46;;;;;;;13.77;9.50;;;7.30;44.30;;;;;;5032337;28;20466;-45
2022/11/13 03:49:11;;;;;;;9.87;8.67;;;7.20;44.20;;;;;;5032762;28;20166;-45
2022/11/13 03:51:37;;;;;;;12.33;9.40;;;7.20;44.30;;;;;;5032800;28;20646;-45
2022/11/13 03:54:03;;;;;;;11.30;9.27;;;7.10;44.30;;;;;;5032689;28;20217;-46
2022/11/13 03:56:29;;;;;;;12.90;8.77;;;7.10;44.30;;;;;;5032146;28;20589;-46
2022/11/13 03:58:55;;;;;;;12.10;7.82;;;7.10;44.10;;;;;;5032653;28;20178;-46
2022/11/13 04:01:21;;;;;;;12.27;8.17;;;7.10;44.80;;;;;;5032788;28;20198;-46
2022/11/13 04:03:46;;;;;;;12.50;8.23;;;7.00;43.80;;;;;;5032498;28;20183;-42
2022/11/13 04:06:13;;;;;;;11.13;8.10;;;6.90;44.10;;;;;;5032054;28;20188;-44
2022/11/13 04:08:39;;;;;;;10.05;7.40;;;7.00;44.10;;;;;;5032370;28;20654;-46
2022/11/13 04:11:10;;;;;;;12.50;8.50;;;6.90;43.90;;;;;;5032637;28;20206;-46
2022/11/13 04:13:36;;;;;;;13.30;8.80;;;6.90;44.00;;;;;;5032296;28;20472;-45
2022/11/13 04:16:03;;;;;;;10.70;8.82;;;6.80;44.20;;;;;;5031959;28;20178;-45
2022/11/13 04:18:29;;;;;;;13.60;9.43;;;6.80;44.10;;;;;;5032445;28;20180;-46
2022/11/13 04:21:02;;;;;;;11.67;9.73;;;6.80;43.90;;;;;;5032341;28;20201;-45
2022/11/13 04:23:28;;;;;;;12.90;9.50;;;6.70;44.00;;;;;;5032382;28;20177;-45
2022/11/13 04:25:54;;;;;;;14.80;8.23;;;6.70;44.10;;;;;;5029885;28;20185;-45
2022/11/13 04:28:20;;;;;;;12.50;8.45;;;6.70;44.00;;;;;;5032114;28;20504;-46
2022/11/13 04:30:46;;;;;;;10.38;8.45;;;6.70;44.00;;;;;;5032075;28;20292;-45
2022/11/13 04:33:12;;;;;;;12.70;8.53;;;6.70;44.00;;;;;;5032145;28;20288;-45
2022/11/13 04:35:40;;;;;;;12.47;10.13;;;6.60;43.90;;;;;;5031493;28;20180;-46
2022/11/13 04:38:06;;;;;;;11.52;8.93;;;6.60;44.00;;;;;;5032155;28;20417;-45
2022/11/13 04:40:32;;;;;;;12.60;9.60;;;6.60;44.10;;;;;;5031939;28;20673;-46
2022/11/13 04:42:57;;;;;;;10.97;8.13;;;6.60;44.10;;;;;;5032202;28;20503;-45
2022/11/13 04:45:26;;;;;;;10.20;8.20;;;6.60;44.10;;;;;;5032150;28;20768;-44
2022/11/13 04:47:52;;;;;;;14.50;9.32;;;6.60;44.00;;;;;;5031593;28;20189;-45
2022/11/13 04:50:18;;;;;;;12.00;9.38;;;6.60;44.10;;;;;;5031959;28;20209;-45
2022/11/13 04:52:44;;;;;;;11.15;8.88;;;6.60;44.00;;;;;;5031928;28;20201;-47
2022/11/13 04:55:10;;;;;;;11.83;8.30;;;6.50;44.00;;;;;;5032270;28;20553;-46
2022/11/13 04:57:36;;;;;;;10.55;9.02;;;6.50;43.90;;;;;;5031343;28;20807;-45
2022/11/13 05:00:04;;;;;;;11.40;9.18;;;6.40;43.70;;;;;;5031802;28;20662;-46
2022/11/13 05:02:30;;;;;;;10.77;8.43;;;6.40;43.70;;;;;;5031904;28;20597;-45
2022/11/13 05:04:56;;;;;;;11.10;9.03;;;6.40;43.90;;;;;;5031943;28;20178;-45
2022/11/13 05:07:21;;;;;;;10.93;8.57;;;6.40;43.90;;;;;;5031302;28;20815;-46
2022/11/13 05:09:47;;;;;;;10.10;8.80;;;6.40;43.90;;;;;;5032101;28;20240;-45
2022/11/13 05:12:13;;;;;;;10.17;7.03;;;6.30;43.90;;;;;;5031722;28;20241;-45
2022/11/13 05:14:40;;;;;;;13.90;8.40;;;6.30;43.80;;;;;;5031879;28;20202;-45
2022/11/13 05:17:08;;;;;;;14.35;9.02;;;6.30;43.80;;;;;;5031286;28;20201;-46
2022/11/13 05:19:34;;;;;;;12.05;8.07;;;6.20;43.50;;;;;;5031617;28;20521;-44
2022/11/13 05:22:00;;;;;;;14.20;8.00;;;6.20;43.60;;;;;;5031934;28;20644;-45
2022/11/13 05:24:26;;;;;;;11.50;8.25;;;6.20;43.50;;;;;;5032001;28;20253;-45
2022/11/13 05:26:52;;;;;;;12.13;8.33;;;6.10;43.60;;;;;;5031375;28;20680;-45
2022/11/13 05:29:18;;;;;;;8.63;7.45;;;6.10;43.60;;;;;;5031853;28;20413;-46
2022/11/13 05:31:44;;;;;;;12.90;7.57;;;6.10;43.60;;;;;;5031451;28;20296;-45
2022/11/13 05:34:10;;;;;;;10.02;6.57;;;6.10;43.70;;;;;;5031624;28;20858;-46
2022/11/13 05:36:36;;;;;;;15.47;9.10;;;6.10;43.70;;;;;;5030897;28;20260;-46
2022/11/13 05:39:01;;;;;;;11.40;7.80;;;6.10;43.70;;;;;;5034427;28;20413;-44
2022/11/13 05:41:28;;;;;;;10.90;7.97;;;6.00;43.50;;;;;;5035187;28;20189;-45
2022/11/13 05:43:53;;;;;;;11.30;8.60;;;6.00;43.30;;;;;;5035308;28;20515;-45
2022/11/13 05:46:20;;;;;;;10.93;8.30;;;5.90;43.50;;;;;;5034463;28;20272;-46
2022/11/13 05:48:50;;;;;;;9.40;7.85;;;5.90;43.60;;;;;;5035152;28;20204;-45
2022/11/13 05:51:22;;;;;;;9.82;7.25;;;5.90;43.70;;;;;;5035193;28;20200;-46
2022/11/13 05:53:48;;;;;;;9.35;6.97;;;5.90;43.50;;;;;;5035015;28;20298;-45
2022/11/13 05:56:16;;;;;;;8.70;6.83;;;5.80;43.40;;;;;;5034340;28;20262;-45
2022/11/13 05:58:43;;;;;;;8.77;7.07;;;5.80;43.60;;;;;;5034926;28;20396;-45
2022/11/13 06:01:14;;;;;;;10.50;8.80;;;5.80;43.70;;;;;;5034807;28;20674;-45
2022/11/13 06:03:40;;;;;;;11.38;6.88;;;5.80;43.60;;;;;;5034821;28;20184;-45
2022/11/13 06:06:08;;;;;;;9.20;7.43;;;5.80;43.70;;;;;;5034355;28;20178;-45
2022/11/13 06:08:33;;;;;;;13.07;8.07;;;5.80;44.40;;;;;;5035196;28;20225;-45
2022/11/13 06:11:05;;;;;;;12.10;7.93;;;5.80;43.60;;;;;;5034843;28;20198;-46
2022/11/13 06:13:32;;;;;;;12.13;7.88;;;5.70;43.60;;;;;;5034854;28;20197;-45
2022/11/13 06:16:03;;;;;;;10.38;7.68;;;5.70;43.50;;;;;;5033880;28;20264;-45
2022/11/13 06:18:29;;;;;;;13.13;8.90;;;5.70;43.70;;;;;;5034828;28;20576;-44
2022/11/13 06:21:03;;;;;;;11.07;7.82;;;5.70;43.60;;;;;;5034436;28;20190;-45
2022/11/13 06:23:30;;;;;;;11.52;7.45;;;5.70;43.70;;;;;;5034448;28;20182;-46
2022/11/13 06:26:04;;;;;;;8.68;7.80;;;5.70;43.70;;;;;;5033827;28;20186;-45
2022/11/13 06:28:31;;;;;;;7.82;6.85;;;5.70;43.70;;;;;;5034398;28;20239;-46
2022/11/13 06:31:06;;;;;;;9.23;6.95;;;5.70;43.60;;;;;;5033968;28;20214;-46
2022/11/13 06:33:32;;;;;;;15.30;8.35;;;5.70;43.60;;;;;;5034406;28;20202;-45
2022/11/13 06:36:04;;;;;;;9.55;7.10;;;5.70;43.60;;;;;;5033699;28;20175;-45
2022/11/13 06:38:34;;;;;;;11.40;7.82;;;5.70;43.50;;;;;;5034264;28;20648;-45
2022/11/13 06:41:00;;;;;;;8.95;7.00;;;5.80;43.60;;;;;;5034348;28;20276;-45
2022/11/13 06:43:27;;;;;;;12.85;9.55;;;5.80;43.50;;;;;;5034112;28;20674;-45
2022/11/13 06:45:54;;;;;;;14.60;7.57;;;6.10;43.90;;;;;;5033675;28;20185;-45
2022/11/13 06:48:19;;;;;;;8.20;7.13;;;6.40;43.60;;;;;;5033567;28;20655;-46
2022/11/13 06:50:45;;;;;;;13.10;7.87;;;6.40;42.70;;;;;;5034108;28;20206;-45
2022/11/13 06:53:11;;;;;;;12.43;7.55;;;6.40;42.50;;;;;;5033887;28;20210;-46
2022/11/13 06:55:46;;;;;;;11.10;7.83;;;6.30;42.70;;;;;;5033266;28;20176;-45
2022/11/13 06:58:12;;;;;;;12.85;8.13;;;6.20;42.70;;;;;;5034103;28;20244;-46
2022/11/13 07:00:38;;;;;;;12.57;7.15;;;6.20;43.10;;;;;;5033736;28;20272;-46
2022/11/13 07:03:04;;;;;;;9.15;7.65;;;6.20;43.20;;;;;;5033907;28;20235;-45
2022/11/13 07:05:30;;;;;;;9.80;7.43;;;6.20;43.30;;;;;;5033367;28;20181;-46
2022/11/13 07:07:56;;;;;;;12.53;8.10;;;6.30;43.50;;;;;;5033891;28;20411;-46
2022/11/13 07:10:21;;;;;;;11.80;8.70;;;6.50;43.50;;;;;;5033832;28;20281;-46
2022/11/13 07:12:47;;;;;;;15.10;8.70;;;6.60;43.20;;;;;;5033494;28;20201;-46
2022/11/13 07:15:15;;;;;;;9.97;7.00;;;6.60;42.90;;;;;;5033299;28;20672;-46
2022/11/13 07:17:41;;;;;;;8.63;7.65;;;6.70;43.10;;;;;;5032974;28;20178;-46
2022/11/13 07:20:07;;;;;;;13.13;8.10;;;6.60;43.10;;;;;;5033466;28;20197;-45
2022/11/13 07:22:33;;;;;;;12.82;7.97;;;6.60;43.20;;;;;;5032125;28;20260;-46
2022/11/13 07:24:58;;;;;;;10.67;8.40;;;6.50;43.40;;;;;;5033281;28;20205;-46
2022/11/13 07:27:24;;;;;;;11.90;6.77;;;6.50;43.50;;;;;;5032670;28;20182;-46
2022/11/13 07:29:50;;;;;;;10.33;7.67;;;6.50;43.70;;;;;;5032985;28;20205;-46
2022/11/13 07:32:15;;;;;;;12.30;9.80;;;6.50;43.80;;;;;;5033341;28;20177;-46
2022/11/13 07:34:41;;;;;;;14.30;10.53;;;6.50;43.80;;;;;;5033135;28;20193;-46
2022/11/13 07:37:07;;;;;;;11.47;8.93;;;6.60;43.80;;;;;;5032569;28;20526;-46
2022/11/13 07:39:32;;;;;;;13.07;9.20;;;6.60;43.90;;;;;;5033130;28;20297;-46
2022/11/13 07:41:58;;;;;;;10.80;9.13;;;6.60;44.10;;;;;;5033252;28;20228;-45
2022/11/13 07:44:24;;;;;;;15.67;10.27;;;6.60;44.30;;;;;;5033007;28;20174;-46
2022/11/13 07:46:49;;;;;;;12.03;9.20;;;6.70;44.50;;;;;;5032514;28;20188;-46
2022/11/13 07:49:15;;;;;;;13.17;9.87;;;6.70;44.60;;;;;;5032824;28;20589;-46
2022/11/13 07:51:41;;;;;;;15.73;9.73;;;6.90;44.60;;;;;;5032791;28;20198;-45
2022/11/13 07:54:06;;;;;;;11.70;8.60;;;7.00;44.60;;;;;;5033003;28;20622;-46
2022/11/13 07:56:32;;;;;;;10.83;9.13;;;7.10;44.50;;;;;;5032244;28;20661;-45
2022/11/13 07:58:58;;;;;;;15.50;8.87;;;7.20;44.30;;;;;;5032860;28;20777;-46
2022/11/13 08:01:24;;;;;;;14.83;9.97;;;7.20;44.30;;;;;;5031987;28;20190;-46
2022/11/13 08:03:49;;;;;;;11.80;9.93;;;7.30;44.50;;;;;;5033010;28;20201;-46
2022/11/13 08:06:15;;;;;;;12.67;9.80;;;7.30;44.70;;;;;;5031982;28;20416;-46
2022/11/13 08:08:41;;;;;;;17.70;12.87;;;7.50;44.80;;;;;;5032494;28;20178;-46
2022/11/13 08:11:08;;;;;;;19.43;12.30;;;7.60;44.80;;;;;;5032742;28;20212;-46
2022/11/13 08:13:35;;;;;;;18.90;13.63;;;7.80;44.80;;;;;;5032633;28;20403;-46
2022/11/13 08:16:02;;;;;;;14.70;9.48;;;8.00;45.20;;;;;;5032151;28;20202;-46
2022/11/13 08:18:29;;;;;;;13.00;9.57;;;8.40;45.70;;;;;;5032624;28;20178;-46
2022/11/13 08:20:55;;;;;;;11.15;9.50;;;8.90;45.60;;;;;;5032188;28;20694;-46
2022/11/13 08:23:22;;;;;;;11.95;9.55;;;9.60;45.10;;;;;;5032672;28;20272;-46
2022/11/13 08:25:47;;;;;;;12.00;9.10;;;10.30;44.10;;;;;;5031998;28;20183;-46
2022/11/13 08:28:14;;;;;;;12.80;9.00;;;10.70;43.60;;;;;;5032152;28;20178;-46
2022/11/13 08:30:42;;;;;;;15.60;14.13;;;10.90;43.20;;;;;;5032087;28;20459;-46
2022/11/13 08:33:08;;;;;;;15.88;9.95;;;11.20;43.00;;;;;;5032038;28;20300;-46
2022/11/13 08:35:34;;;;;;;24.70;17.53;;;11.50;42.80;;;;;;5031600;28;20261;-46
2022/11/13 08:38:05;;;;;;;12.07;9.10;;;12.10;42.30;;;;;;5031965;28;20904;-46
2022/11/13 08:40:31;;;;;;;13.82;12.38;;;12.80;40.70;;;;;;5032126;28;20229;-46
2022/11/13 08:43:01;;;;;;;10.27;8.40;;;13.60;39.50;;;;;;5032137;28;20546;-46
2022/11/13 08:45:28;;;;;;;10.88;9.52;;;14.30;38.70;;;;;;5031896;28;20206;-47
2022/11/13 08:47:57;;;;;;;10.35;7.80;;;14.90;38.10;;;;;;5030278;28;20684;-46
2022/11/13 08:50:23;;;;;;;11.45;8.68;;;15.50;37.50;;;;;;5031721;28;20699;-47
2022/11/13 08:52:56;;;;;;;14.13;9.90;;;16.10;37.10;;;;;;5031812;28;20293;-46
2022/11/13 08:55:22;;;;;;;9.13;6.80;;;16.40;35.80;;;;;;5032225;28;20165;-44
2022/11/13 08:57:48;;;;;;;9.23;8.00;;;16.40;34.10;;;;;;5031386;28;20542;-46
2022/11/13 09:00:14;;;;;;;10.33;7.83;;;16.30;35.60;;;;;;5031750;28;20511;-47
2022/11/13 09:02:40;;;;;;;11.70;8.20;;;16.20;35.20;;;;;;5031877;28;20567;-46
2022/11/13 09:05:07;;;;;;;10.20;7.57;;;16.10;35.80;;;;;;5031758;28;20192;-47
2022/11/13 09:07:32;;;;;;;10.70;8.70;;;15.90;35.80;;;;;;5031456;28;20173;-46
2022/11/13 09:09:58;;;;;;;11.07;6.77;;;15.70;36.00;;;;;;5031917;28;20539;-47
2022/11/13 09:12:24;;;;;;;10.67;7.70;;;15.50;36.20;;;;;;5033745;28;20664;-47
2022/11/13 09:14:50;;;;;;;9.60;6.80;;;15.30;36.60;;;;;;5035999;28;20256;-46
2022/11/13 09:17:16;;;;;;;10.73;7.30;;;15.20;36.80;;;;;;5034389;28;20180;-46
2022/11/13 09:19:42;;;;;;;8.73;6.32;;;15.00;36.60;;;;;;5035460;28;20192;-47
2022/11/13 09:22:08;;;;;;;10.15;7.03;;;14.80;36.20;;;;;;5035668;28;20537;-46
2022/11/13 09:24:33;;;;;;;10.63;7.40;;;14.60;36.40;;;;;;5035728;28;20172;-47
2022/11/13 09:26:59;;;;;;;7.50;6.70;;;15.50;37.30;;;;;;5035030;28;20815;-46
2022/11/13 09:29:27;;;;;;;11.47;7.33;;;14.30;37.00;;;;;;5035713;28;20420;-46
2022/11/13 09:31:53;;;;;;;10.43;7.65;;;14.30;36.90;;;;;;5035314;28;20503;-46
2022/11/13 09:34:20;;;;;;;10.43;7.05;;;14.20;37.30;;;;;;5035415;28;20297;-45
2022/11/13 09:36:46;;;;;;;10.00;7.20;;;14.20;36.70;;;;;;5033840;28;20177;-46
2022/11/13 09:39:11;;;;;;;11.50;7.87;;;14.20;37.10;;;;;;5035340;28;20166;-45
2022/11/13 09:41:43;;;;;;;10.40;8.17;;;14.20;36.70;;;;;;5035295;28;20190;-46
2022/11/13 09:44:30;;;;;;;7.72;6.93;;;14.10;37.40;;;;;;5035292;28;20202;-46
2022/11/13 09:47:08;;;;;;;9.90;7.10;;;14.10;37.20;;;;;;5034853;28;20193;-46
2022/11/13 09:49:40;;;;;;;10.18;7.10;;;14.10;38.40;;;;;;5034991;28;20487;-46
2022/11/13 09:52:14;;;;;;;9.98;7.53;;;14.20;37.60;;;;;;5035208;28;20585;-46
2022/11/13 09:54:40;;;;;;;11.07;7.60;;;14.50;37.40;;;;;;5035114;28;20296;-45
2022/11/13 09:57:28;;;;;;;8.90;6.63;;;15.40;36.70;;;;;;5034397;28;20633;-45
2022/11/13 10:00:03;;;;;;;8.30;6.75;;;16.20;35.70;;;;;;5035046;28;20786;-46
2022/11/13 10:03:08;;;;;;;9.70;7.25;;;17.00;34.70;;;;;;5035028;28;20178;-46
2022/11/13 10:06:15;;;;;;;11.85;8.25;;;17.30;33.00;;;;;;5034175;28;20174;-46
2022/11/13 10:08:59;;;;;;;8.77;7.45;;;17.40;34.00;;;;;;5035075;28;20491;-44
2022/11/13 10:12:02;;;;;;;11.70;8.88;;;18.10;33.60;;;;;;5033666;28;20288;-46
2022/11/13 10:14:45;;;;;;;12.30;7.55;;;18.70;32.20;;;;;;5033465;28;20208;-46
2022/11/13 10:17:25;;;;;;;14.00;7.97;;;18.90;31.20;;;;;;5034033;28;20637;-46
2022/11/13 10:20:06;;;;;;;10.43;7.30;;;18.50;30.60;;;;;;5034898;28;20221;-47
2022/11/13 10:22:51;;;;;;;9.48;8.05;;;18.10;31.70;;;;;;5034449;28;20610;-47
2022/11/13 10:25:18;;;;;;;9.57;7.22;;;17.90;32.40;;;;;;5034097;28;20622;-47
2022/11/13 10:28:11;;;;;;;8.13;7.20;;;17.70;33.00;;;;;;5033718;28;20597;-44
2022/11/13 10:30:39;;;;;;;9.48;7.43;;;17.50;32.80;;;;;;5028466;28;20256;-44
2022/11/13 10:33:07;;;;;;;8.60;6.43;;;17.10;33.10;;;;;;5034361;28;20237;-44
2022/11/13 10:35:43;;;;;;;11.93;7.35;;;16.90;32.90;;;;;;5033577;28;20176;-45
2022/11/13 10:38:21;;;;;;;9.43;7.78;;;16.70;33.70;;;;;;5034218;28;20257;-44
2022/11/13 10:40:47;;;;;;;9.90;7.03;;;16.60;34.40;;;;;;5033958;28;20225;-44
2022/11/13 10:43:14;;;;;;;10.45;7.68;;;16.50;34.20;;;;;;5034248;28;20269;-44
2022/11/13 10:45:42;;;;;;;13.30;9.25;;;16.80;33.80;;;;;;5033693;28;20182;-44
2022/11/13 10:48:39;;;;;;;10.57;7.13;;;17.20;34.20;;;;;;5033913;28;20247;-44
2022/11/13 10:51:28;;;;;;;10.65;7.45;;;17.50;33.20;;;;;;5033793;28;20197;-44
2022/11/13 10:53:55;;;;;;;7.68;6.20;;;17.50;34.30;;;;;;5034035;28;20244;-45
2022/11/13 10:56:33;;;;;;;9.98;7.45;;;17.40;34.10;;;;;;5033116;28;20569;-44
2022/11/13 10:59:08;;;;;;;11.48;7.43;;;17.30;34.10;;;;;;5033768;28;20181;-44
2022/11/13 11:01:34;;;;;;;10.35;6.20;;;17.10;34.00;;;;;;5033857;28;20221;-45
2022/11/13 11:04:03;;;;;;;9.60;7.50;;;17.00;34.30;;;;;;5033931;28;20202;-44
2022/11/13 11:06:38;;;;;;;11.25;6.72;;;16.90;33.40;;;;;;5033159;28;20443;-43
2022/11/13 11:09:31;;;;;;;9.80;7.38;;;16.70;33.70;;;;;;5033144;28;20265;-44
2022/11/13 11:12:16;;;;;;;10.23;6.60;;;16.60;34.40;;;;;;5033514;28;20550;-44
2022/11/13 11:14:46;;;;;;;11.57;7.13;;;16.40;34.20;;;;;;5033726;28;20166;-43
2022/11/13 11:17:15;;;;;;;7.70;6.32;;;16.40;34.50;;;;;;5032983;28;20163;-44
2022/11/13 11:19:45;;;;;;;6.80;5.15;;;16.40;34.40;;;;;;5033160;28;20174;-44
2022/11/13 11:22:18;;;;;;;10.15;6.70;;;16.40;35.30;;;;;;5033308;28;20162;-44
2022/11/13 11:25:16;;;;;;;12.13;7.55;;;16.50;34.40;;;;;;5033406;28;20190;-43
2022/11/13 11:27:54;;;;;;;11.15;7.47;;;16.40;33.90;;;;;;5032839;28;20197;-44
2022/11/13 11:30:27;;;;;;;8.63;6.50;;;16.20;34.20;;;;;;5032861;28;20736;-44
2022/11/13 11:33:17;;;;;;;7.85;6.30;;;16.10;34.80;;;;;;5033231;28;20228;-44
2022/11/13 11:35:55;;;;;;;9.73;7.47;;;16.00;35.00;;;;;;5032482;28;20704;-44
2022/11/13 11:38:25;;;;;;;9.85;6.55;;;16.10;35.50;;;;;;5032909;28;20206;-44
2022/11/13 11:41:20;;;;;;;9.25;6.50;;;16.10;34.90;;;;;;5033084;28;20196;-42
2022/11/13 11:44:00;;;;;;;9.80;6.25;;;16.30;34.40;;;;;;5031532;28;20190;-43
2022/11/13 11:46:28;;;;;;;9.05;6.78;;;16.80;34.70;;;;;;5032563;28;20244;-44
2022/11/13 11:48:59;;;;;;;11.38;7.85;;;17.00;34.30;;;;;;5032907;28;20184;-44
2022/11/13 11:51:47;;;;;;;7.93;5.78;;;17.20;33.60;;;;;;5032685;28;20198;-44
2022/11/13 11:54:16;;;;;;;8.90;7.47;;;17.60;33.30;;;;;;5032484;28;20329;-44
2022/11/13 11:56:56;;;;;;;8.35;7.55;;;17.70;32.20;;;;;;5032297;28;20248;-44
2022/11/13 11:59:36;;;;;;;8.60;6.78;;;17.60;31.50;;;;;;5032556;28;20158;-44
2022/11/13 12:02:05;;;;;;;10.20;8.18;;;17.30;32.60;;;;;;5032786;28;20154;-43
2022/11/13 12:04:40;;;;;;;10.80;8.88;;;17.10;32.30;;;;;;5033442;28;20687;-44
2022/11/13 12:07:25;;;;;;;11.18;8.05;;;17.10;33.30;;;;;;5033627;28;20642;-44
2022/11/13 12:10:10;;;;;;;18.88;8.80;;;17.10;32.80;;;;;;5035936;28;20193;-44
2022/11/13 12:12:59;;;;;;;13.30;8.90;;;17.20;33.00;;;;;;5037721;28;20189;-44
2022/11/13 12:15:37;;;;;;;12.52;8.52;;;17.50;32.90;;;;;;5037986;28;20188;-42
2022/11/13 12:18:12;;;;;;;12.27;8.35;;;17.60;31.70;;;;;;5040820;28;20169;-45
2022/11/13 12:21:11;;;;;;;9.75;8.25;;;17.60;32.50;;;;;;5039407;28;20649;-43
2022/11/13 12:23:54;;;;;;;12.88;9.10;;;17.80;32.50;;;;;;5050704;23;20248;-42
2022/11/13 12:26:49;;;;;;;11.65;8.57;;;18.20;30.80;;;;;;5051708;28;20180;-41
2022/11/13 12:29:48;;;;;;;13.20;10.38;;;18.30;31.10;;;;;;5050577;28;20652;-41
2022/11/13 12:32:36;;;;;;;12.07;8.90;;;18.50;30.60;;;;;;5052188;28;20188;-41
2022/11/13 12:35:15;;;;;;;10.90;7.50;;;18.80;30.60;;;;;;5052195;28;20669;-42
2022/11/13 12:38:08;;;;;;;11.52;8.77;;;18.80;30.90;;;;;;5051582;28;20177;-41
2022/11/13 12:40:57;;;;;;;14.50;10.57;;;19.60;28.80;;;;;;5051944;28;20223;-41
2022/11/13 12:43:56;;;;;;;13.25;10.20;;;20.20;28.10;;;;;;5022394;28;20189;-41
2022/11/13 12:46:36;;;;;;;12.60;10.05;;;20.70;27.20;;;;;;5051091;28;20222;-42
2022/11/13 12:49:22;;;;;;;13.60;10.05;;;21.20;27.60;;;;;;5052089;28;20173;-42
2022/11/13 12:51:55;;;;;;;11.38;8.95;;;21.50;26.10;;;;;;5051951;28;20166;-42
2022/11/13 12:54:33;;;;;;;12.95;10.48;;;21.40;26.90;;;;;;5051835;28;20215;-42
2022/11/13 12:57:16;;;;;;;13.82;10.00;;;21.40;26.60;;;;;;5051319;28;20177;-42